sensor_id;sensor_type;location;lat;lon;timestamp;P1;durP1;ratioP1;P2;durP2;ratioP2
66893;SDS011;53801;55.786;49.142;2023-11-19T09:04:52;10.70;;;3.60;;
66893;SDS011;53801;55.786;49.142;2023-11-19T09:07:25;6.57;;;3.33;;
66893;SDS011;53801;55.786;49.142;2023-11-19T09:09:50;8.53;;;3.70;;
66893;SDS011;53801;55.786;49.142;2023-11-19T09:12:16;10.70;;;4.00;;
66893;SDS011;53801;55.786;49.142;2023-11-19T09:14:41;10.27;;;3.83;;
66893;SDS011;53801;55.786;49.142;2023-11-19T09:17:09;5.05;;;3.10;;
66893;SDS011;53801;55.786;49.142;2023-11-19T09:19:35;8.25;;;4.10;;
66893;SDS011;53801;55.786;49.142;2023-11-19T09:22:01;15.40;;;4.50;;
66893;SDS011;53801;55.786;49.142;2023-11-19T09:24:26;45.55;;;5.80;;
66893;SDS011;53801;55.786;49.142;2023-11-19T09:26:52;5.23;;;3.03;;
66893;SDS011;53801;55.786;49.142;2023-11-19T09:29:20;11.15;;;3.25;;
66893;SDS011;53801;55.786;49.142;2023-11-19T09:31:46;5.82;;;3.22;;
66893;SDS011;53801;55.786;49.142;2023-11-19T09:34:12;9.03;;;2.70;;
66893;SDS011;53801;55.786;49.142;2023-11-19T09:36:37;6.90;;;3.17;;
66893;SDS011;53801;55.786;49.142;2023-11-19T09:39:03;7.63;;;3.23;;
66893;SDS011;53801;55.786;49.142;2023-11-19T09:41:29;8.00;;;3.50;;
66893;SDS011;53801;55.786;49.142;2023-11-19T09:43:55;59.38;;;7.40;;
66893;SDS011;53801;55.786;49.142;2023-11-19T09:46:24;10.80;;;4.20;;
66893;SDS011;53801;55.786;49.142;2023-11-19T09:49:00;10.57;;;3.33;;
66893;SDS011;53801;55.786;49.142;2023-11-19T09:51:45;8.30;;;3.38;;
66893;SDS011;53801;55.786;49.142;2023-11-19T09:54:11;19.10;;;5.47;;
66893;SDS011;53801;55.786;49.142;2023-11-19T09:56:38;7.50;;;3.60;;
66893;SDS011;53801;55.786;49.142;2023-11-19T09:59:04;11.85;;;4.13;;
66893;SDS011;53801;55.786;49.142;2023-11-19T10:01:31;7.20;;;4.20;;
66893;SDS011;53801;55.786;49.142;2023-11-19T10:04:15;6.93;;;3.15;;
66893;SDS011;53801;55.786;49.142;2023-11-19T10:06:45;8.40;;;3.17;;
66893;SDS011;53801;55.786;49.142;2023-11-19T10:09:12;12.38;;;3.67;;
66893;SDS011;53801;55.786;49.142;2023-11-19T10:11:38;7.33;;;2.90;;
66893;SDS011;53801;55.786;49.142;2023-11-19T10:14:03;8.48;;;3.30;;
66893;SDS011;53801;55.786;49.142;2023-11-19T10:16:29;5.27;;;2.50;;
66893;SDS011;53801;55.786;49.142;2023-11-19T10:18:56;7.35;;;2.60;;
66893;SDS011;53801;55.786;49.142;2023-11-19T10:21:21;9.13;;;2.30;;
66893;SDS011;53801;55.786;49.142;2023-11-19T10:23:51;6.20;;;2.00;;
66893;SDS011;53801;55.786;49.142;2023-11-19T10:26:17;12.10;;;2.80;;
66893;SDS011;53801;55.786;49.142;2023-11-19T10:28:43;6.90;;;2.60;;
66893;SDS011;53801;55.786;49.142;2023-11-19T10:31:12;21.48;;;3.58;;
66893;SDS011;53801;55.786;49.142;2023-11-19T10:33:38;5.55;;;2.08;;
66893;SDS011;53801;55.786;49.142;2023-11-19T10:36:03;5.80;;;2.00;;
66893;SDS011;53801;55.786;49.142;2023-11-19T10:38:29;6.63;;;2.20;;
66893;SDS011;53801;55.786;49.142;2023-11-19T10:40:55;6.15;;;1.75;;
66893;SDS011;53801;55.786;49.142;2023-11-19T10:43:22;7.43;;;1.90;;
66893;SDS011;53801;55.786;49.142;2023-11-19T10:45:48;8.00;;;2.13;;
66893;SDS011;53801;55.786;49.142;2023-11-19T10:48:14;7.35;;;2.08;;
66893;SDS011;53801;55.786;49.142;2023-11-19T10:50:49;19.50;;;2.50;;
66893;SDS011;53801;55.786;49.142;2023-11-19T10:56:16;5.22;;;1.65;;
66893;SDS011;53801;55.786;49.142;2023-11-19T10:58:50;7.63;;;2.00;;
66893;SDS011;53801;55.786;49.142;2023-11-19T11:04:41;15.33;;;2.10;;
66893;SDS011;53801;55.786;49.142;2023-11-19T11:07:25;16.33;;;2.20;;
66893;SDS011;53801;55.786;49.142;2023-11-19T11:09:55;11.05;;;2.25;;
66893;SDS011;53801;55.786;49.142;2023-11-19T11:12:25;20.63;;;3.95;;
66893;SDS011;53801;55.786;49.142;2023-11-19T11:14:51;52.30;;;5.07;;
66893;SDS011;53801;55.786;49.142;2023-11-19T11:17:35;18.63;;;2.35;;
66893;SDS011;53801;55.786;49.142;2023-11-19T11:20:34;5.68;;;1.33;;
66893;SDS011;53801;55.786;49.142;2023-11-19T11:28:18;7.80;;;1.88;;
66893;SDS011;53801;55.786;49.142;2023-11-19T11:31:01;8.48;;;1.77;;
66893;SDS011;53801;55.786;49.142;2023-11-19T11:36:06;3.20;;;0.83;;
66893;SDS011;53801;55.786;49.142;2023-11-19T11:38:37;4.60;;;0.97;;
66893;SDS011;53801;55.786;49.142;2023-11-19T11:41:20;13.00;;;1.10;;
66893;SDS011;53801;55.786;49.142;2023-11-19T11:43:50;13.40;;;1.48;;
66893;SDS011;53801;55.786;49.142;2023-11-19T11:49:00;8.75;;;1.88;;
66893;SDS011;53801;55.786;49.142;2023-11-19T11:57:03;6.78;;;1.88;;
66893;SDS011;53801;55.786;49.142;2023-11-19T12:02:22;5.38;;;1.40;;
66893;SDS011;53801;55.786;49.142;2023-11-19T12:05:13;15.43;;;1.73;;
66893;SDS011;53801;55.786;49.142;2023-11-19T12:07:58;9.70;;;1.55;;
66893;SDS011;53801;55.786;49.142;2023-11-19T12:16:16;18.73;;;3.17;;
66893;SDS011;53801;55.786;49.142;2023-11-19T12:18:46;9.57;;;2.10;;
66893;SDS011;53801;55.786;49.142;2023-11-19T12:21:12;13.02;;;2.20;;
66893;SDS011;53801;55.786;49.142;2023-11-19T12:23:52;12.27;;;2.03;;
66893;SDS011;53801;55.786;49.142;2023-11-19T12:26:30;8.55;;;2.05;;
66893;SDS011;53801;55.786;49.142;2023-11-19T12:29:00;8.80;;;1.70;;
66893;SDS011;53801;55.786;49.142;2023-11-19T12:31:27;12.68;;;2.40;;
66893;SDS011;53801;55.786;49.142;2023-11-19T12:33:53;12.25;;;2.38;;
66893;SDS011;53801;55.786;49.142;2023-11-19T12:36:19;9.83;;;2.10;;
66893;SDS011;53801;55.786;49.142;2023-11-19T12:38:44;16.23;;;2.47;;
66893;SDS011;53801;55.786;49.142;2023-11-19T12:41:14;18.60;;;2.80;;
66893;SDS011;53801;55.786;49.142;2023-11-19T12:44:20;17.63;;;3.27;;
66893;SDS011;53801;55.786;49.142;2023-11-19T12:47:05;12.40;;;2.05;;
66893;SDS011;53801;55.786;49.142;2023-11-19T12:49:34;7.83;;;2.17;;
66893;SDS011;53801;55.786;49.142;2023-11-19T12:52:00;9.80;;;2.15;;
66893;SDS011;53801;55.786;49.142;2023-11-19T12:57:09;9.25;;;2.25;;
66893;SDS011;53801;55.786;49.142;2023-11-19T13:02:50;9.63;;;2.33;;
66893;SDS011;53801;55.786;49.142;2023-11-19T13:05:29;9.77;;;2.73;;
66893;SDS011;53801;55.786;49.142;2023-11-19T13:08:02;7.80;;;2.22;;
66893;SDS011;53801;55.786;49.142;2023-11-19T13:10:28;8.35;;;2.25;;
66893;SDS011;53801;55.786;49.142;2023-11-19T13:13:03;8.10;;;2.42;;
66893;SDS011;53801;55.786;49.142;2023-11-19T13:15:29;14.23;;;2.55;;
66893;SDS011;53801;55.786;49.142;2023-11-19T13:17:54;15.53;;;2.97;;
66893;SDS011;53801;55.786;49.142;2023-11-19T13:20:20;23.77;;;3.00;;
66893;SDS011;53801;55.786;49.142;2023-11-19T13:22:59;11.65;;;2.47;;
66893;SDS011;53801;55.786;49.142;2023-11-19T13:25:25;14.02;;;3.20;;
66893;SDS011;53801;55.786;49.142;2023-11-19T13:27:51;12.98;;;3.60;;
66893;SDS011;53801;55.786;49.142;2023-11-19T13:30:16;16.73;;;3.63;;
66893;SDS011;53801;55.786;49.142;2023-11-19T13:32:42;10.05;;;3.58;;
66893;SDS011;53801;55.786;49.142;2023-11-19T13:35:09;9.82;;;3.28;;
66893;SDS011;53801;55.786;49.142;2023-11-19T13:37:35;23.65;;;3.80;;
66893;SDS011;53801;55.786;49.142;2023-11-19T13:40:01;12.77;;;2.43;;
66893;SDS011;53801;55.786;49.142;2023-11-19T13:42:28;5.38;;;2.10;;
66893;SDS011;53801;55.786;49.142;2023-11-19T13:44:54;15.57;;;2.88;;
66893;SDS011;53801;55.786;49.142;2023-11-19T13:47:23;14.70;;;3.72;;
66893;SDS011;53801;55.786;49.142;2023-11-19T13:49:52;11.68;;;4.20;;
66893;SDS011;53801;55.786;49.142;2023-11-19T13:52:17;11.95;;;4.30;;
66893;SDS011;53801;55.786;49.142;2023-11-19T13:54:43;19.83;;;4.73;;
66893;SDS011;53801;55.786;49.142;2023-11-19T13:57:08;20.50;;;5.83;;
66893;SDS011;53801;55.786;49.142;2023-11-19T13:59:39;28.20;;;5.57;;
66893;SDS011;53801;55.786;49.142;2023-11-19T14:02:04;19.27;;;5.07;;
66893;SDS011;53801;55.786;49.142;2023-11-19T14:04:33;24.75;;;4.40;;
66893;SDS011;53801;55.786;49.142;2023-11-19T14:06:58;11.10;;;3.95;;
66893;SDS011;53801;55.786;49.142;2023-11-19T14:09:24;19.77;;;4.20;;
66893;SDS011;53801;55.786;49.142;2023-11-19T14:11:49;17.70;;;4.10;;
66893;SDS011;53801;55.786;49.142;2023-11-19T14:14:18;18.48;;;2.85;;
66893;SDS011;53801;55.786;49.142;2023-11-19T14:16:44;12.00;;;2.90;;
66893;SDS011;53801;55.786;49.142;2023-11-19T14:19:09;15.73;;;2.83;;
66893;SDS011;53801;55.786;49.142;2023-11-19T14:21:36;20.27;;;3.60;;
66893;SDS011;53801;55.786;49.142;2023-11-19T14:24:01;13.63;;;4.13;;
66893;SDS011;53801;55.786;49.142;2023-11-19T14:26:26;14.03;;;4.67;;
66893;SDS011;53801;55.786;49.142;2023-11-19T14:28:52;13.57;;;4.50;;
66893;SDS011;53801;55.786;49.142;2023-11-19T14:31:17;23.63;;;4.82;;
66893;SDS011;53801;55.786;49.142;2023-11-19T14:33:46;15.07;;;4.70;;
66893;SDS011;53801;55.786;49.142;2023-11-19T14:36:12;20.05;;;4.75;;
66893;SDS011;53801;55.786;49.142;2023-11-19T14:38:37;24.33;;;5.30;;
66893;SDS011;53801;55.786;49.142;2023-11-19T14:41:03;22.73;;;5.00;;
66893;SDS011;53801;55.786;49.142;2023-11-19T14:43:30;25.98;;;4.40;;
66893;SDS011;53801;55.786;49.142;2023-11-19T14:45:56;13.03;;;2.93;;
66893;SDS011;53801;55.786;49.142;2023-11-19T14:48:21;9.07;;;2.93;;
66893;SDS011;53801;55.786;49.142;2023-11-19T14:50:47;17.03;;;4.23;;
66893;SDS011;53801;55.786;49.142;2023-11-19T14:53:12;8.80;;;2.83;;
66893;SDS011;53801;55.786;49.142;2023-11-19T14:55:41;13.02;;;3.38;;
66893;SDS011;53801;55.786;49.142;2023-11-19T14:58:06;11.83;;;2.97;;
66893;SDS011;53801;55.786;49.142;2023-11-19T15:00:32;8.10;;;2.70;;
66893;SDS011;53801;55.786;49.142;2023-11-19T15:03:07;10.73;;;2.58;;
66893;SDS011;53801;55.786;49.142;2023-11-19T15:05:34;6.53;;;2.13;;
66893;SDS011;53801;55.786;49.142;2023-11-19T15:07:59;11.33;;;2.90;;
66893;SDS011;53801;55.786;49.142;2023-11-19T15:10:25;9.27;;;3.30;;
66893;SDS011;53801;55.786;49.142;2023-11-19T15:12:50;14.70;;;4.07;;
66893;SDS011;53801;55.786;49.142;2023-11-19T15:15:16;5.55;;;1.60;;
66893;SDS011;53801;55.786;49.142;2023-11-19T15:17:41;10.17;;;3.10;;
66893;SDS011;53801;55.786;49.142;2023-11-19T15:20:10;16.53;;;3.77;;
66893;SDS011;53801;55.786;49.142;2023-11-19T15:22:38;9.75;;;3.40;;
66893;SDS011;53801;55.786;49.142;2023-11-19T15:25:04;15.90;;;3.70;;
66893;SDS011;53801;55.786;49.142;2023-11-19T15:27:33;25.13;;;3.93;;
66893;SDS011;53801;55.786;49.142;2023-11-19T15:29:58;28.45;;;4.10;;
66893;SDS011;53801;55.786;49.142;2023-11-19T15:32:24;11.57;;;3.90;;
66893;SDS011;53801;55.786;49.142;2023-11-19T15:34:49;15.60;;;4.37;;
66893;SDS011;53801;55.786;49.142;2023-11-19T15:37:15;12.90;;;3.75;;
66893;SDS011;53801;55.786;49.142;2023-11-19T15:39:43;17.17;;;4.23;;
66893;SDS011;53801;55.786;49.142;2023-11-19T15:42:09;13.10;;;3.40;;
66893;SDS011;53801;55.786;49.142;2023-11-19T15:44:36;12.30;;;4.18;;
66893;SDS011;53801;55.786;49.142;2023-11-19T15:47:01;15.57;;;3.53;;
66893;SDS011;53801;55.786;49.142;2023-11-19T15:49:28;9.95;;;3.95;;
66893;SDS011;53801;55.786;49.142;2023-11-19T15:51:53;11.43;;;3.53;;
66893;SDS011;53801;55.786;49.142;2023-11-19T15:54:19;16.97;;;3.17;;
66893;SDS011;53801;55.786;49.142;2023-11-19T15:56:44;16.75;;;4.57;;
66893;SDS011;53801;55.786;49.142;2023-11-19T15:59:10;9.53;;;3.27;;
66893;SDS011;53801;55.786;49.142;2023-11-19T16:01:36;29.15;;;5.47;;
66893;SDS011;53801;55.786;49.142;2023-11-19T16:04:01;17.10;;;6.60;;
66893;SDS011;53801;55.786;49.142;2023-11-19T16:06:27;17.13;;;5.80;;
66893;SDS011;53801;55.786;49.142;2023-11-19T16:08:56;18.00;;;6.95;;
66893;SDS011;53801;55.786;49.142;2023-11-19T16:11:24;21.23;;;8.37;;
66893;SDS011;53801;55.786;49.142;2023-11-19T16:13:50;15.18;;;6.65;;
66893;SDS011;53801;55.786;49.142;2023-11-19T16:16:18;29.00;;;8.20;;
66893;SDS011;53801;55.786;49.142;2023-11-19T16:18:44;26.15;;;8.02;;
66893;SDS011;53801;55.786;49.142;2023-11-19T16:21:10;26.33;;;8.10;;
66893;SDS011;53801;55.786;49.142;2023-11-19T16:23:35;17.80;;;6.03;;
66893;SDS011;53801;55.786;49.142;2023-11-19T16:26:01;16.85;;;7.38;;
66893;SDS011;53801;55.786;49.142;2023-11-19T16:28:26;22.73;;;6.43;;
66893;SDS011;53801;55.786;49.142;2023-11-19T16:30:52;15.50;;;5.30;;
66893;SDS011;53801;55.786;49.142;2023-11-19T16:33:17;15.05;;;5.50;;
66893;SDS011;53801;55.786;49.142;2023-11-19T16:35:43;17.17;;;5.10;;
66893;SDS011;53801;55.786;49.142;2023-11-19T16:38:09;14.20;;;5.27;;
66893;SDS011;53801;55.786;49.142;2023-11-19T16:40:41;14.05;;;4.95;;
66893;SDS011;53801;55.786;49.142;2023-11-19T16:45:49;17.30;;;5.05;;
66893;SDS011;53801;55.786;49.142;2023-11-19T16:48:14;13.48;;;4.07;;
66893;SDS011;53801;55.786;49.142;2023-11-19T16:50:40;14.02;;;3.75;;
66893;SDS011;53801;55.786;49.142;2023-11-19T16:53:06;16.07;;;4.67;;
66893;SDS011;53801;55.786;49.142;2023-11-19T16:55:31;18.02;;;4.15;;
66893;SDS011;53801;55.786;49.142;2023-11-19T16:57:57;13.17;;;3.40;;
66893;SDS011;53801;55.786;49.142;2023-11-19T17:00:24;12.57;;;3.53;;
66893;SDS011;53801;55.786;49.142;2023-11-19T17:02:50;14.23;;;3.78;;
66893;SDS011;53801;55.786;49.142;2023-11-19T17:05:16;13.57;;;3.10;;
66893;SDS011;53801;55.786;49.142;2023-11-19T17:07:41;12.37;;;3.40;;
66893;SDS011;53801;55.786;49.142;2023-11-19T17:10:07;12.15;;;3.58;;
66893;SDS011;53801;55.786;49.142;2023-11-19T17:12:34;13.65;;;4.20;;
66893;SDS011;53801;55.786;49.142;2023-11-19T17:15:00;12.10;;;4.00;;
66893;SDS011;53801;55.786;49.142;2023-11-19T17:17:32;16.20;;;5.35;;
66893;SDS011;53801;55.786;49.142;2023-11-19T17:20:01;15.05;;;4.85;;
66893;SDS011;53801;55.786;49.142;2023-11-19T17:22:30;18.13;;;5.32;;
66893;SDS011;53801;55.786;49.142;2023-11-19T17:24:55;17.65;;;5.22;;
66893;SDS011;53801;55.786;49.142;2023-11-19T17:27:21;20.97;;;6.30;;
66893;SDS011;53801;55.786;49.142;2023-11-19T17:34:59;20.35;;;7.25;;
66893;SDS011;53801;55.786;49.142;2023-11-19T17:37:24;23.00;;;7.05;;
66893;SDS011;53801;55.786;49.142;2023-11-19T17:39:50;21.40;;;6.90;;
66893;SDS011;53801;55.786;49.142;2023-11-19T17:42:17;17.20;;;6.13;;
66893;SDS011;53801;55.786;49.142;2023-11-19T17:44:42;16.53;;;6.60;;
66893;SDS011;53801;55.786;49.142;2023-11-19T17:47:08;17.17;;;5.90;;
66893;SDS011;53801;55.786;49.142;2023-11-19T17:49:41;16.45;;;6.20;;
66893;SDS011;53801;55.786;49.142;2023-11-19T17:52:07;17.48;;;5.72;;
66893;SDS011;53801;55.786;49.142;2023-11-19T17:54:35;21.30;;;6.28;;
66893;SDS011;53801;55.786;49.142;2023-11-19T17:57:00;16.63;;;6.18;;
66893;SDS011;53801;55.786;49.142;2023-11-19T18:05:07;12.27;;;3.85;;
66893;SDS011;53801;55.786;49.142;2023-11-19T18:07:32;17.58;;;4.57;;
66893;SDS011;53801;55.786;49.142;2023-11-19T18:09:58;17.80;;;4.65;;
66893;SDS011;53801;55.786;49.142;2023-11-19T18:12:25;18.27;;;6.07;;
66893;SDS011;53801;55.786;49.142;2023-11-19T18:14:53;19.95;;;6.13;;
66893;SDS011;53801;55.786;49.142;2023-11-19T18:17:21;20.93;;;5.87;;
66893;SDS011;53801;55.786;49.142;2023-11-19T18:19:47;17.35;;;6.13;;
66893;SDS011;53801;55.786;49.142;2023-11-19T18:22:16;20.38;;;5.68;;
66893;SDS011;53801;55.786;49.142;2023-11-19T18:24:42;15.75;;;5.70;;
66893;SDS011;53801;55.786;49.142;2023-11-19T18:27:08;12.48;;;4.88;;
66893;SDS011;53801;55.786;49.142;2023-11-19T18:29:33;12.97;;;4.73;;
66893;SDS011;53801;55.786;49.142;2023-11-19T18:32:00;19.17;;;5.45;;
66893;SDS011;53801;55.786;49.142;2023-11-19T18:34:38;18.33;;;4.38;;
66893;SDS011;53801;55.786;49.142;2023-11-19T18:39:53;14.77;;;4.30;;
66893;SDS011;53801;55.786;49.142;2023-11-19T18:42:20;18.65;;;4.25;;
66893;SDS011;53801;55.786;49.142;2023-11-19T18:44:45;16.17;;;3.90;;
66893;SDS011;53801;55.786;49.142;2023-11-19T18:47:11;11.53;;;3.27;;
66893;SDS011;53801;55.786;49.142;2023-11-19T18:49:36;18.45;;;4.20;;
66893;SDS011;53801;55.786;49.142;2023-11-19T18:52:02;13.60;;;2.83;;
66893;SDS011;53801;55.786;49.142;2023-11-19T18:54:28;13.33;;;2.93;;
66893;SDS011;53801;55.786;49.142;2023-11-19T18:56:53;12.40;;;3.30;;
66893;SDS011;53801;55.786;49.142;2023-11-19T18:59:30;12.32;;;3.50;;
66893;SDS011;53801;55.786;49.142;2023-11-19T19:01:55;15.73;;;3.35;;
66893;SDS011;53801;55.786;49.142;2023-11-19T19:04:22;18.63;;;3.28;;
66893;SDS011;53801;55.786;49.142;2023-11-19T19:06:59;17.90;;;3.72;;
66893;SDS011;53801;55.786;49.142;2023-11-19T19:09:28;13.57;;;3.63;;
66893;SDS011;53801;55.786;49.142;2023-11-19T19:12:05;12.27;;;4.07;;
66893;SDS011;53801;55.786;49.142;2023-11-19T19:14:31;10.45;;;3.20;;
66893;SDS011;53801;55.786;49.142;2023-11-19T19:16:56;14.97;;;3.87;;
66893;SDS011;53801;55.786;49.142;2023-11-19T19:19:22;15.25;;;3.40;;
66893;SDS011;53801;55.786;49.142;2023-11-19T19:21:49;10.00;;;3.50;;
66893;SDS011;53801;55.786;49.142;2023-11-19T19:24:14;14.30;;;3.47;;
66893;SDS011;53801;55.786;49.142;2023-11-19T19:29:18;18.23;;;4.22;;
66893;SDS011;53801;55.786;49.142;2023-11-19T19:31:44;21.03;;;3.87;;
66893;SDS011;53801;55.786;49.142;2023-11-19T19:34:10;15.95;;;3.78;;
66893;SDS011;53801;55.786;49.142;2023-11-19T19:36:36;16.83;;;3.80;;
66893;SDS011;53801;55.786;49.142;2023-11-19T19:39:02;15.02;;;4.25;;
66893;SDS011;53801;55.786;49.142;2023-11-19T19:41:28;11.07;;;3.27;;
66893;SDS011;53801;55.786;49.142;2023-11-19T19:43:54;14.95;;;3.25;;
66893;SDS011;53801;55.786;49.142;2023-11-19T19:46:20;12.52;;;3.88;;
66893;SDS011;53801;55.786;49.142;2023-11-19T19:48:50;18.67;;;4.32;;
66893;SDS011;53801;55.786;49.142;2023-11-19T19:51:18;13.75;;;3.88;;
66893;SDS011;53801;55.786;49.142;2023-11-19T19:53:45;11.83;;;4.00;;
66893;SDS011;53801;55.786;49.142;2023-11-19T19:58:45;11.68;;;3.63;;
66893;SDS011;53801;55.786;49.142;2023-11-19T20:01:10;17.40;;;4.13;;
66893;SDS011;53801;55.786;49.142;2023-11-19T20:03:36;13.30;;;3.42;;
66893;SDS011;53801;55.786;49.142;2023-11-19T20:06:01;13.43;;;3.67;;
66893;SDS011;53801;55.786;49.142;2023-11-19T20:08:32;21.25;;;3.97;;
66893;SDS011;53801;55.786;49.142;2023-11-19T20:10:58;19.52;;;3.55;;
66893;SDS011;53801;55.786;49.142;2023-11-19T20:13:23;18.70;;;4.23;;
66893;SDS011;53801;55.786;49.142;2023-11-19T20:15:49;19.40;;;4.80;;
66893;SDS011;53801;55.786;49.142;2023-11-19T20:18:18;14.13;;;3.53;;
66893;SDS011;53801;55.786;49.142;2023-11-19T20:20:44;9.13;;;3.00;;
66893;SDS011;53801;55.786;49.142;2023-11-19T20:23:09;11.97;;;3.10;;
66893;SDS011;53801;55.786;49.142;2023-11-19T20:28:23;16.35;;;3.63;;
66893;SDS011;53801;55.786;49.142;2023-11-19T20:33:20;11.43;;;3.20;;
66893;SDS011;53801;55.786;49.142;2023-11-19T20:35:46;17.47;;;3.47;;
66893;SDS011;53801;55.786;49.142;2023-11-19T20:38:12;10.57;;;3.80;;
66893;SDS011;53801;55.786;49.142;2023-11-19T20:40:38;16.10;;;3.53;;
66893;SDS011;53801;55.786;49.142;2023-11-19T20:43:06;13.20;;;3.50;;
66893;SDS011;53801;55.786;49.142;2023-11-19T20:45:31;12.77;;;3.80;;
66893;SDS011;53801;55.786;49.142;2023-11-19T20:47:57;12.40;;;3.10;;
66893;SDS011;53801;55.786;49.142;2023-11-19T20:50:23;19.75;;;4.07;;
66893;SDS011;53801;55.786;49.142;2023-11-19T20:52:50;9.27;;;3.23;;
66893;SDS011;53801;55.786;49.142;2023-11-19T20:55:18;10.05;;;3.42;;
66893;SDS011;53801;55.786;49.142;2023-11-19T20:57:48;12.93;;;3.67;;
66893;SDS011;53801;55.786;49.142;2023-11-19T21:00:14;10.55;;;3.33;;
66893;SDS011;53801;55.786;49.142;2023-11-19T21:02:43;11.60;;;3.60;;
66893;SDS011;53801;55.786;49.142;2023-11-19T21:05:09;15.20;;;3.17;;
66893;SDS011;53801;55.786;49.142;2023-11-19T21:07:34;11.53;;;3.07;;
66893;SDS011;53801;55.786;49.142;2023-11-19T21:13:03;13.13;;;2.95;;
66893;SDS011;53801;55.786;49.142;2023-11-19T21:15:28;9.55;;;2.78;;
66893;SDS011;53801;55.786;49.142;2023-11-19T21:20:42;12.27;;;3.17;;
66893;SDS011;53801;55.786;49.142;2023-11-19T21:23:08;10.17;;;2.80;;
66893;SDS011;53801;55.786;49.142;2023-11-19T21:25:34;12.37;;;4.03;;
66893;SDS011;53801;55.786;49.142;2023-11-19T21:27:59;11.90;;;3.28;;
66893;SDS011;53801;55.786;49.142;2023-11-19T21:30:25;9.27;;;3.20;;
66893;SDS011;53801;55.786;49.142;2023-11-19T21:32:51;13.37;;;3.47;;
66893;SDS011;53801;55.786;49.142;2023-11-19T21:35:17;9.73;;;3.35;;
66893;SDS011;53801;55.786;49.142;2023-11-19T21:37:43;10.43;;;3.45;;
66893;SDS011;53801;55.786;49.142;2023-11-19T21:40:08;12.73;;;3.20;;
66893;SDS011;53801;55.786;49.142;2023-11-19T21:42:35;11.15;;;3.45;;
66893;SDS011;53801;55.786;49.142;2023-11-19T21:45:01;9.45;;;3.50;;
66893;SDS011;53801;55.786;49.142;2023-11-19T21:47:28;10.20;;;2.95;;
66893;SDS011;53801;55.786;49.142;2023-11-19T21:49:54;11.82;;;3.47;;
66893;SDS011;53801;55.786;49.142;2023-11-19T21:52:19;12.10;;;3.20;;
66893;SDS011;53801;55.786;49.142;2023-11-19T21:54:45;10.88;;;3.75;;
66893;SDS011;53801;55.786;49.142;2023-11-19T21:59:42;11.50;;;3.45;;
66893;SDS011;53801;55.786;49.142;2023-11-19T22:02:08;9.37;;;3.00;;
66893;SDS011;53801;55.786;49.142;2023-11-19T22:04:34;11.30;;;2.67;;
66893;SDS011;53801;55.786;49.142;2023-11-19T22:06:59;7.93;;;2.85;;
66893;SDS011;53801;55.786;49.142;2023-11-19T22:09:25;7.63;;;2.40;;
66893;SDS011;53801;55.786;49.142;2023-11-19T22:11:50;7.77;;;3.00;;
66893;SDS011;53801;55.786;49.142;2023-11-19T22:14:16;9.00;;;2.42;;
66893;SDS011;53801;55.786;49.142;2023-11-19T22:16:41;11.10;;;2.87;;
66893;SDS011;53801;55.786;49.142;2023-11-19T22:19:09;10.03;;;2.23;;
66893;SDS011;53801;55.786;49.142;2023-11-19T22:21:34;8.43;;;2.45;;
66893;SDS011;53801;55.786;49.142;2023-11-19T22:24:00;9.57;;;2.40;;
66893;SDS011;53801;55.786;49.142;2023-11-19T22:26:26;4.38;;;1.63;;
66893;SDS011;53801;55.786;49.142;2023-11-19T22:28:52;6.03;;;1.83;;
66893;SDS011;53801;55.786;49.142;2023-11-19T22:31:17;7.70;;;2.20;;
66893;SDS011;53801;55.786;49.142;2023-11-19T22:33:48;7.95;;;2.15;;
66893;SDS011;53801;55.786;49.142;2023-11-19T22:36:34;6.53;;;1.30;;
66893;SDS011;53801;55.786;49.142;2023-11-19T22:38:59;6.10;;;1.60;;
66893;SDS011;53801;55.786;49.142;2023-11-19T22:44:10;7.18;;;1.50;;
66893;SDS011;53801;55.786;49.142;2023-11-19T22:46:35;5.90;;;1.30;;
66893;SDS011;53801;55.786;49.142;2023-11-19T22:49:01;9.23;;;1.73;;
66893;SDS011;53801;55.786;49.142;2023-11-19T22:51:26;6.80;;;1.70;;
66893;SDS011;53801;55.786;49.142;2023-11-19T22:53:52;9.05;;;1.70;;
66893;SDS011;53801;55.786;49.142;2023-11-19T22:56:18;5.00;;;1.63;;
66893;SDS011;53801;55.786;49.142;2023-11-19T22:58:43;8.57;;;1.90;;
66893;SDS011;53801;55.786;49.142;2023-11-19T23:01:17;5.00;;;1.35;;
66893;SDS011;53801;55.786;49.142;2023-11-19T23:03:43;7.93;;;1.77;;
66893;SDS011;53801;55.786;49.142;2023-11-19T23:06:09;6.32;;;1.67;;
66893;SDS011;53801;55.786;49.142;2023-11-19T23:08:35;5.68;;;1.70;;
66893;SDS011;53801;55.786;49.142;2023-11-19T23:11:01;6.10;;;1.90;;
66893;SDS011;53801;55.786;49.142;2023-11-19T23:13:27;5.83;;;1.77;;
66893;SDS011;53801;55.786;49.142;2023-11-19T23:15:52;6.20;;;2.08;;
66893;SDS011;53801;55.786;49.142;2023-11-19T23:18:18;5.47;;;1.67;;
66893;SDS011;53801;55.786;49.142;2023-11-19T23:20:43;5.33;;;1.80;;
66893;SDS011;53801;55.786;49.142;2023-11-19T23:23:09;7.15;;;1.67;;
66893;SDS011;53801;55.786;49.142;2023-11-19T23:25:35;8.98;;;2.65;;
66893;SDS011;53801;55.786;49.142;2023-11-19T23:28:00;7.32;;;2.10;;
66893;SDS011;53801;55.786;49.142;2023-11-19T23:30:26;5.45;;;2.00;;
66893;SDS011;53801;55.786;49.142;2023-11-19T23:32:51;5.73;;;1.80;;
66893;SDS011;53801;55.786;49.142;2023-11-19T23:35:17;4.53;;;1.67;;
66893;SDS011;53801;55.786;49.142;2023-11-19T23:37:42;9.00;;;2.22;;
66893;SDS011;53801;55.786;49.142;2023-11-19T23:40:09;7.40;;;2.13;;
66893;SDS011;53801;55.786;49.142;2023-11-19T23:42:35;6.22;;;1.83;;
66893;SDS011;53801;55.786;49.142;2023-11-19T23:45:00;9.80;;;1.85;;
66893;SDS011;53801;55.786;49.142;2023-11-19T23:47:26;5.70;;;1.87;;
66893;SDS011;53801;55.786;49.142;2023-11-19T23:49:51;8.20;;;2.40;;
66893;SDS011;53801;55.786;49.142;2023-11-19T23:52:17;5.82;;;2.20;;
66893;SDS011;53801;55.786;49.142;2023-11-19T23:54:43;6.65;;;1.83;;
66893;SDS011;53801;55.786;49.142;2023-11-19T23:57:20;10.03;;;2.50;;
66893;SDS011;53801;55.786;49.142;2023-11-19T23:59:47;7.82;;;2.30;;
